Thorne, Nevada
Current Conditions -  °F | °C
As of 6:52 AM on Thursday 30 Oct 2014 (Local Time) from KBAN Reporting Station
Clear Clear  
Wind Chill: 27°   Ceiling: Unl
Heat Index: 27°   Visibility: NA
Dew Point: 15°   Wind: 0mph
Humidity: 61%   Direction: NA
Pressure: 30.23"   Gusts: NA
Location:  38.6331°N, 118.656°W
Report Text: KBAN 301352Z AUTO 00000KT CLR M03/M09 A3023 RMK AO2 SLP216 T10281094 FZRANO $
Loading
Personal Weather Stations






























Interactive Weather Map
Tropical Storm Tracking
New forecast layout! Learn more

10-Day Weather Forecast

Advertisements
Track Severe Weather on mobile